Details for Ryanair at EGNX




Go Back


Latest METAR
Local Time

EGNX 252220Z 04007KT 360V080 0800 R27/P1500 FG OVC002 13/13 Q1021

25/05/2018, 23:29:40

Description
Results
Ryanair Logo
Number of Pilots based at EGNX
1 Pilots Based here
Number of Ryanair Flights Departed from EGNX
6 Flights Departed
Number of Ryanair Flights Arrived at EGNX
6 Flights Arrived
Number of Ryanair Schedules Departing from EGNX
80 Schedules
Number of Ryanair Schedules Arriving at EGNX
79 Schedules
Number of Ryanair Schedules Departing from EGNX availible today
25 Schedules Today
Number of Ryanair Schedules Arriving at EGNX availible today
25 Schedules Today
Average Landing Rate at EGNX
-225 fpm
Ryanair Average Landing Rate at EGNX
-234 fpm
Total Fuel Purchased at EGNX by Ryanair
31,939.71 kgs / 70,414.28 lbs

Pilots Based at EGNX


Pilot ID
Pilot Name
Pilot Rank
No. of Flights
No. of Flying Hours
Guy Hall
255
349.15
Content